createdAt,value
2019-01-11T00:00:12.814Z,34.3
2019-01-11T00:01:03.452Z,34.3
2019-01-11T00:01:52.686Z,34.3
2019-01-11T00:02:42.986Z,34.3
2019-01-11T00:03:33.044Z,34.3
2019-01-11T00:04:23.369Z,34.3
2019-01-11T00:05:13.479Z,34.3
2019-01-11T00:06:02.373Z,34.2
2019-01-11T00:06:52.983Z,34.2
2019-01-11T00:07:43.318Z,34.2
2019-01-11T00:08:33.148Z,34.2
2019-01-11T00:09:23.423Z,34.2
2019-01-11T00:10:13.500Z,34.1
2019-01-11T00:11:03.883Z,34.2
2019-01-11T00:11:53.601Z,34.2
2019-01-11T00:12:43.651Z,34.1
2019-01-11T00:13:34.006Z,34.1
2019-01-11T00:14:24.339Z,34.1
2019-01-11T00:15:13.838Z,34.1
2019-01-11T00:16:04.188Z,34.1
2019-01-11T00:34:27.101Z,34
2019-01-11T00:35:17.848Z,34
2019-01-11T00:36:07.926Z,33.9
2019-01-11T00:36:57.481Z,34
2019-01-11T00:37:47.228Z,34
2019-01-11T00:38:37.254Z,33.9
2019-01-11T00:39:27.608Z,34
2019-01-11T00:40:17.378Z,33.9
2019-01-11T00:41:07.976Z,33.9
2019-01-11T00:41:57.531Z,34
2019-01-11T00:42:47.851Z,33.9
2019-01-11T00:43:37.856Z,33.9
2019-01-11T00:44:27.655Z,33.9
2019-01-11T00:45:17.965Z,33.9
2019-01-11T00:46:07.773Z,33.9
2019-01-11T00:46:57.267Z,33.9
2019-01-11T00:47:47.588Z,33.9
2019-01-11T00:48:37.925Z,33.9
2019-01-11T00:49:28.389Z,33.9
2019-01-11T00:50:18.638Z,33.9
2019-01-11T00:51:08.103Z,33.9
2019-01-11T00:51:58.149Z,33.9
2019-01-11T00:52:48.208Z,33.9
2019-01-11T00:53:38.583Z,33.9
2019-01-11T00:54:27.831Z,33.9
2019-01-11T00:55:18.994Z,33.9
2019-01-11T00:56:09.023Z,33.9
2019-01-11T00:56:58.281Z,33.8
2019-01-11T00:57:48.360Z,33.9
2019-01-11T00:58:38.892Z,33.8
2019-01-11T00:59:29.212Z,33.8
2019-01-11T01:00:18.459Z,33.8
2019-01-11T01:01:08.504Z,33.8
2019-01-11T01:01:58.561Z,33.8
2019-01-11T01:02:49.240Z,33.8
2019-01-11T01:03:39.540Z,33.8
2019-01-11T01:04:28.722Z,33.8
2019-01-11T01:05:18.797Z,33.8
2019-01-11T01:06:09.460Z,33.8
2019-01-11T01:06:59.492Z,33.8
2019-01-11T01:07:49.557Z,33.8
2019-01-11T01:08:39.557Z,33.8
2019-01-11T01:09:29.050Z,33.8
2019-01-11T01:10:19.995Z,33.8
2019-01-11T01:11:08.907Z,33.8
2019-01-11T01:12:00.440Z,33.8
2019-01-11T01:12:49.296Z,33.8
2019-01-11T01:13:39.621Z,33.8
2019-01-11T01:14:29.742Z,33.8
2019-01-11T01:15:20.375Z,33.8
2019-01-11T01:16:10.051Z,33.7
2019-01-11T01:17:00.386Z,33.7
2019-01-11T01:17:50.189Z,33.7
2019-01-11T01:18:40.253Z,33.7
2019-01-11T01:19:30.019Z,33.7
2019-01-11T01:20:20.442Z,33.6
2019-01-11T01:21:10.722Z,33.7
2019-01-11T01:22:00.799Z,33.8
2019-01-11T01:22:50.516Z,33.7
2019-01-11T01:23:40.599Z,33.6
2019-01-11T01:24:30.646Z,33.7
2019-01-11T01:25:20.716Z,33.7
2019-01-11T01:26:10.473Z,33.7
2019-01-11T01:26:59.988Z,33.7
2019-01-11T01:27:50.603Z,33.6
2019-01-11T01:28:40.296Z,33.6
2019-01-11T01:29:30.346Z,33.6
2019-01-11T01:30:20.646Z,33.6
2019-01-11T01:31:10.098Z,33.6
2019-01-11T01:32:00.653Z,33.6
2019-01-11T01:32:51.008Z,33.6
2019-01-11T01:33:40.782Z,33.6
2019-01-11T01:34:30.551Z,33.6
2019-01-11T01:35:20.300Z,33.6
2019-01-11T01:36:10.875Z,33.6
2019-01-11T01:37:01.497Z,33.6
2019-01-11T01:37:52.078Z,33.6
2019-01-11T01:38:41.877Z,33.6
2019-01-11T01:39:31.660Z,33.6
2019-01-11T01:40:21.992Z,33.6
2019-01-11T01:41:10.985Z,33.6
2019-01-11T01:42:02.095Z,33.6
2019-01-11T01:42:52.424Z,33.6
2019-01-11T01:43:42.202Z,33.5
2019-01-11T01:44:31.720Z,33.5
2019-01-11T01:45:21.827Z,33.5
2019-01-11T01:46:12.395Z,33.4
2019-01-11T01:47:02.164Z,33.5
2019-01-11T01:47:51.952Z,33.4
2019-01-11T01:48:42.298Z,33.4
2019-01-11T01:49:32.277Z,33.4
2019-01-11T01:50:22.167Z,33.4
2019-01-11T01:51:12.164Z,33.4
2019-01-11T01:52:03.064Z,33.4
2019-01-11T01:52:52.334Z,33.4
2019-01-11T01:53:42.897Z,33.4
2019-01-11T01:54:32.954Z,33.4
2019-01-11T01:55:22.451Z,33.4
2019-01-11T01:56:12.254Z,33.4
2019-01-11T01:57:03.120Z,33.4
2019-01-11T01:57:52.911Z,33.4
2019-01-11T01:58:42.931Z,33.4
2019-01-11T01:59:32.462Z,33.4
2019-01-11T02:00:22.054Z,33.4
2019-01-11T02:01:12.374Z,33.4
2019-01-11T02:02:02.759Z,33.4
2019-01-11T02:02:52.736Z,33.4
2019-01-11T02:03:43.106Z,33.4
2019-01-11T02:04:33.196Z,33.4
2019-01-11T02:05:22.387Z,33.4
2019-01-11T02:06:13.509Z,33.4
2019-01-11T02:07:03.326Z,33.4
2019-01-11T02:07:53.366Z,33.5
2019-01-11T02:08:43.173Z,33.5
2019-01-11T02:09:32.653Z,33.5
2019-01-11T02:10:22.999Z,33.6
2019-01-11T02:11:13.598Z,33.6
2019-01-11T02:12:03.338Z,33.6
2019-01-11T02:12:54.221Z,33.6
2019-01-11T02:13:43.698Z,33.6
2019-01-11T02:14:33.477Z,33.6
2019-01-11T02:15:24.066Z,33.6
2019-01-11T02:16:13.358Z,33.7
2019-01-11T02:17:03.415Z,33.7
2019-01-11T02:17:53.970Z,33.7
2019-01-11T02:18:44.585Z,33.7
2019-01-11T02:19:39.263Z,33.8
2019-01-11T02:20:23.631Z,33.8
2019-01-11T02:21:13.405Z,33.8
2019-01-11T02:22:04.288Z,33.8
2019-01-11T02:22:54.322Z,33.8
2019-01-11T02:23:44.922Z,33.9
2019-01-11T02:24:34.713Z,33.9
2019-01-11T02:25:24.477Z,33.9
2019-01-11T02:26:14.589Z,33.9
2019-01-11T02:27:04.407Z,34
2019-01-11T02:27:54.005Z,34
2019-01-11T02:28:44.705Z,34.1
2019-01-11T02:29:33.727Z,34.1
2019-01-11T02:30:25.011Z,34.3
2019-01-11T02:31:14.945Z,34.3
2019-01-11T02:32:05.824Z,34.4
2019-01-11T02:32:58.402Z,34.4
2019-01-11T02:33:45.052Z,34.6
2019-01-11T02:34:34.887Z,34.6
2019-01-11T02:35:25.860Z,34.7
2019-01-11T02:36:14.389Z,34.8
2019-01-11T02:37:06.210Z,34.9
2019-01-11T02:37:55.379Z,34.9
2019-01-11T02:38:45.967Z,35.1
2019-01-11T02:39:35.772Z,35.1
2019-01-11T02:40:26.197Z,35.3
2019-01-11T02:41:15.590Z,35.3
2019-01-11T02:42:05.988Z,35.4
2019-01-11T02:42:55.164Z,35.6
2019-01-11T02:43:45.488Z,35.7
2019-01-11T02:44:37.117Z,35.8
2019-01-11T02:45:26.136Z,35.9
2019-01-11T02:46:15.376Z,35.9
2019-01-11T02:47:06.529Z,36.1
2019-01-11T02:47:56.342Z,36.2
2019-01-11T02:48:46.344Z,36.3
2019-01-11T02:49:43.356Z,36.4
2019-01-11T02:50:26.841Z,36.6
2019-01-11T02:51:16.343Z,36.6
2019-01-11T02:52:07.138Z,36.8
2019-01-11T02:52:56.713Z,36.9
2019-01-11T02:53:46.744Z,37
2019-01-11T02:54:37.083Z,37.1
2019-01-11T02:55:27.431Z,37.2
2019-01-11T02:56:16.622Z,37.3
2019-01-11T02:57:06.701Z,37.4
2019-01-11T02:57:56.957Z,37.5
2019-01-11T02:58:47.048Z,37.6
2019-01-11T02:59:37.406Z,37.7
2019-01-11T03:00:26.616Z,37.8
2019-01-11T03:01:16.960Z,37.9
2019-01-11T03:02:07.382Z,38.1
2019-01-11T03:02:57.322Z,38.1
2019-01-11T03:03:46.860Z,38.3
2019-01-11T03:04:37.453Z,38.4
2019-01-11T03:05:28.763Z,38.4
2019-01-11T03:06:17.255Z,38.5
2019-01-11T03:07:07.614Z,38.6
2019-01-11T03:07:57.122Z,38.6
2019-01-11T03:08:47.972Z,38.7
2019-01-11T03:09:37.519Z,38.7
2019-01-11T03:10:26.717Z,38.8
2019-01-11T03:11:17.883Z,38.8
2019-01-11T03:12:07.986Z,38.8
2019-01-11T03:12:57.740Z,38.8
2019-01-11T03:13:48.116Z,38.9
2019-01-11T03:14:38.156Z,38.9
2019-01-11T03:15:27.439Z,39
2019-01-11T03:16:18.719Z,39.1
2019-01-11T03:17:08.294Z,39.1
2019-01-11T03:17:58.069Z,39.3
2019-01-11T03:18:48.439Z,39.3
2019-01-11T03:19:37.655Z,39.4
2019-01-11T03:20:28.576Z,39.4
2019-01-11T03:21:18.905Z,39.5
2019-01-11T03:22:08.069Z,39.5
2019-01-11T03:22:58.396Z,39.6
2019-01-11T03:23:49.336Z,39.6
2019-01-11T03:24:38.828Z,39.6
2019-01-11T03:25:28.027Z,39.6
2019-01-11T03:26:18.901Z,39.6
2019-01-11T03:27:08.691Z,39.6
2019-01-11T03:27:59.595Z,39.6
2019-01-11T03:28:48.817Z,39.6
2019-01-11T03:29:39.736Z,39.6
2019-01-11T03:30:28.819Z,39.6
2019-01-11T03:31:19.919Z,39.6
2019-01-11T03:32:09.429Z,39.6
2019-01-11T03:32:59.060Z,39.6
2019-01-11T03:33:48.860Z,39.6
2019-01-11T03:34:40.063Z,39.6
2019-01-11T03:35:29.371Z,39.6
2019-01-11T03:36:19.612Z,39.6
2019-01-11T03:37:09.667Z,39.6
2019-01-11T03:37:59.145Z,39.6
2019-01-11T03:38:49.521Z,39.6
2019-01-11T03:39:39.597Z,39.6
2019-01-11T03:40:30.205Z,39.6
2019-01-11T03:41:19.080Z,39.6
2019-01-11T03:42:10.277Z,39.6
2019-01-11T03:43:00.054Z,39.6
2019-01-11T03:43:50.107Z,39.6
2019-01-11T03:44:40.172Z,39.6
2019-01-11T03:45:31.554Z,39.6
2019-01-11T03:46:20.289Z,39.6
2019-01-11T03:47:10.315Z,39.6
2019-01-11T03:48:00.972Z,39.6
2019-01-11T03:48:50.797Z,39.6
2019-01-11T03:49:40.766Z,39.6
2019-01-11T03:50:30.577Z,39.6
2019-01-11T03:51:20.639Z,39.6
2019-01-11T03:52:10.109Z,39.6
2019-01-11T03:53:00.197Z,39.6
2019-01-11T03:53:50.759Z,39.6
2019-01-11T03:54:39.492Z,39.6
2019-01-11T03:55:30.881Z,39.6
2019-01-11T03:56:21.302Z,39.6
2019-01-11T03:57:10.979Z,39.6
2019-01-11T03:58:00.806Z,39.6
2019-01-11T03:58:51.088Z,39.6
2019-01-11T03:59:41.219Z,39.6
2019-01-11T04:00:31.226Z,39.6
2019-01-11T04:01:20.196Z,39.6
2019-01-11T04:02:10.246Z,39.6
2019-01-11T04:03:00.583Z,39.6
2019-01-11T04:03:50.876Z,39.6
2019-01-11T04:04:40.128Z,39.6
2019-01-11T04:05:31.323Z,39.6
2019-01-11T04:06:22.223Z,39.5
2019-01-11T04:07:11.110Z,39.5
2019-01-11T04:08:02.007Z,39.5
2019-01-11T04:08:51.366Z,39.5
2019-01-11T04:09:41.312Z,39.5
2019-01-11T04:10:31.130Z,39.5
2019-01-11T04:11:22.335Z,39.5
2019-01-11T04:12:11.212Z,39.5
2019-01-11T04:13:02.083Z,39.5
2019-01-11T04:13:51.581Z,39.5
2019-01-11T04:14:41.933Z,39.5
2019-01-11T04:15:32.565Z,39.4
2019-01-11T04:16:21.940Z,39.5
2019-01-11T04:17:12.623Z,39.5
2019-01-11T04:18:02.405Z,39.5
2019-01-11T04:18:52.736Z,39.4
2019-01-11T04:19:42.225Z,39.4
2019-01-11T04:20:32.872Z,39.4
2019-01-11T04:21:22.380Z,39.4
2019-01-11T04:22:12.191Z,39.4
2019-01-11T04:23:02.757Z,39.4
2019-01-11T04:23:52.371Z,39.4
2019-01-11T04:24:43.482Z,39.4
2019-01-11T04:25:33.315Z,39.4
2019-01-11T04:26:22.480Z,39.4
2019-01-11T04:27:13.037Z,39.4
2019-01-11T04:28:02.293Z,39.4
2019-01-11T04:28:53.247Z,39.4
2019-01-11T04:29:42.672Z,39.4
2019-01-11T04:30:33.055Z,39.4
2019-01-11T04:31:23.019Z,39.4
2019-01-11T04:32:13.653Z,39.4
2019-01-11T04:33:03.743Z,39.4
2019-01-11T04:33:53.787Z,39.4
2019-01-11T04:34:43.282Z,39.4
2019-01-11T04:35:34.179Z,39.4
2019-01-11T04:36:23.659Z,39.4
2019-01-11T04:37:13.727Z,39.4
2019-01-11T04:38:04.066Z,39.4
2019-01-11T04:38:53.274Z,39.4
2019-01-11T04:39:44.244Z,39.4
2019-01-11T04:40:39.817Z,39.4
2019-01-11T04:41:23.726Z,39.4
2019-01-11T04:42:14.344Z,39.3
2019-01-11T04:43:04.399Z,39.3
2019-01-11T04:43:53.914Z,39.3
2019-01-11T04:44:44.522Z,39.3
2019-01-11T04:45:34.689Z,39.3
2019-01-11T04:46:24.113Z,39.3
2019-01-11T05:04:00.396Z,39.2
2019-01-11T05:04:58.635Z,39.3
2019-01-11T05:05:28.018Z,39.2
2019-01-11T05:07:58.400Z,39.2
2019-01-11T05:08:32.625Z,39.2
2019-01-11T05:09:57.650Z,39.2
2019-01-11T05:10:33.777Z,39.2
2019-01-11T05:12:07.840Z,39.2
2019-01-11T09:18:12.580Z,37.8
2019-01-11T09:19:01.968Z,37.8
2019-01-11T09:19:52.788Z,37.8
2019-01-11T09:20:43.368Z,37.8
2019-01-11T09:21:33.544Z,37.8
2019-01-11T09:22:23.463Z,37.8
2019-01-11T09:23:11.893Z,37.8
2019-01-11T09:24:03.064Z,37.8
2019-01-11T09:24:52.850Z,37.8
2019-01-11T09:25:42.908Z,37.8
2019-01-11T09:26:32.920Z,37.8
2019-01-11T09:27:22.157Z,37.7
2019-01-11T09:28:13.884Z,37.7
2019-01-11T09:29:03.725Z,37.7
2019-01-11T09:29:53.685Z,37.7
2019-01-11T09:30:43.475Z,37.7
2019-01-11T09:31:33.530Z,37.7
2019-01-11T09:32:23.608Z,37.7
2019-01-11T09:33:20.070Z,37.7
2019-01-11T09:34:04.257Z,37.7
2019-01-11T09:34:53.782Z,37.7
2019-01-11T09:35:43.817Z,37.7
2019-01-11T09:36:33.422Z,37.7
2019-01-11T09:37:23.924Z,37.7
2019-01-11T09:38:14.203Z,37.6
2019-01-11T09:39:03.830Z,37.7
2019-01-11T09:39:54.427Z,37.6
2019-01-11T09:40:44.162Z,37.6
2019-01-11T09:41:34.214Z,37.6
2019-01-11T09:42:24.315Z,37.6
2019-01-11T09:43:14.357Z,37.6
2019-01-11T09:44:04.407Z,37.6
2019-01-11T09:44:54.442Z,37.6
2019-01-11T09:45:44.216Z,37.6
2019-01-11T09:46:34.832Z,37.6
2019-01-11T09:47:25.141Z,37.6
2019-01-11T09:48:14.997Z,37.6
2019-01-11T09:49:04.454Z,37.6
2019-01-11T09:49:55.204Z,37.6
2019-01-11T09:50:44.609Z,37.6
2019-01-11T09:51:34.319Z,37.6
2019-01-11T09:52:24.941Z,37.6
2019-01-11T09:53:14.468Z,37.6
2019-01-11T09:54:05.349Z,37.6
2019-01-11T09:54:55.678Z,37.6
2019-01-11T09:55:44.058Z,37.6
2019-01-11T09:56:35.546Z,37.6
2019-01-11T09:57:25.551Z,37.5
2019-01-11T09:58:15.656Z,37.5
2019-01-11T09:59:05.291Z,37.5
2019-01-11T09:59:55.418Z,37.5
2019-01-11T10:00:46.412Z,37.5
2019-01-11T10:01:35.606Z,37.4
2019-01-11T10:02:25.650Z,37.4
2019-01-11T10:03:16.285Z,37.4
2019-01-11T10:04:05.834Z,37.4
2019-01-11T10:04:55.628Z,37.4
2019-01-11T10:05:45.838Z,37.4
2019-01-11T10:06:35.693Z,37.4
2019-01-11T10:07:25.682Z,37.4
2019-01-11T10:08:16.300Z,37.4
2019-01-11T10:09:05.798Z,37.4
2019-01-11T10:09:56.411Z,37.4
2019-01-11T10:10:45.635Z,37.4
2019-01-11T10:11:35.690Z,37.4
2019-01-11T10:12:25.759Z,37.4
2019-01-11T10:13:16.065Z,37.4
2019-01-11T10:14:06.163Z,37.4
2019-01-11T10:14:56.757Z,37.4
2019-01-11T10:15:46.808Z,37.4
2019-01-11T10:16:36.580Z,37.4
2019-01-11T10:17:26.645Z,37.4
2019-01-11T10:18:16.687Z,37.4
2019-01-11T10:19:06.475Z,37.4
2019-01-11T10:19:56.842Z,37.4
2019-01-11T10:20:46.597Z,37.4
2019-01-11T10:21:36.625Z,37.4
2019-01-11T10:22:26.975Z,37.3
2019-01-11T10:23:16.740Z,37.3
2019-01-11T10:24:07.144Z,37.3
2019-01-11T10:24:56.947Z,37.3
2019-01-11T10:25:46.907Z,37.3
2019-01-11T10:26:37.275Z,37.3
2019-01-11T10:27:27.084Z,37.3
2019-01-11T10:28:17.619Z,37.3
2019-01-11T10:29:07.139Z,37.3
2019-01-11T10:29:56.639Z,37.3
2019-01-11T10:30:48.073Z,37.3
2019-01-11T10:31:37.309Z,37.3
2019-01-11T10:32:27.374Z,37.3
2019-01-11T10:33:17.696Z,37.3
2019-01-11T10:34:08.291Z,37.3
2019-01-11T10:34:57.791Z,37.3
2019-01-11T10:35:48.158Z,37.3
2019-01-11T10:36:37.914Z,37.2
2019-01-11T10:37:27.953Z,37.2
2019-01-11T10:38:18.045Z,37.2
2019-01-11T10:39:08.383Z,37.2
2019-01-11T10:39:58.698Z,37.2
2019-01-11T10:40:48.238Z,37.2
2019-01-11T10:41:38.537Z,37.2
2019-01-11T10:42:28.633Z,37.2
2019-01-11T10:43:18.375Z,37.2
2019-01-11T10:44:08.718Z,37.2
2019-01-11T10:44:58.745Z,37.1
2019-01-11T10:45:48.568Z,37.1
2019-01-11T10:46:38.873Z,37.1
2019-01-11T10:47:28.923Z,37.1
2019-01-11T10:48:18.450Z,37.1
2019-01-11T10:49:08.751Z,37.1
2019-01-11T10:49:58.528Z,37.1
2019-01-11T10:50:48.684Z,37.1
2019-01-11T10:51:39.222Z,37.1
2019-01-11T10:52:29.245Z,37.1
2019-01-11T10:53:18.017Z,37.1
2019-01-11T10:54:08.060Z,37.1
2019-01-11T10:54:58.405Z,37.1
2019-01-11T10:55:48.648Z,37.1
2019-01-11T10:56:39.241Z,37.1
2019-01-11T10:57:29.315Z,37.1
2019-01-11T10:58:19.107Z,37.1
2019-01-11T10:59:09.730Z,37
2019-01-11T10:59:59.745Z,37
2019-01-11T11:00:49.460Z,37
2019-01-11T11:01:39.852Z,37
2019-01-11T11:02:29.642Z,37
2019-01-11T11:03:19.734Z,37
2019-01-11T11:04:09.487Z,37
2019-01-11T11:04:58.699Z,37
2019-01-11T11:05:49.659Z,37
2019-01-11T11:06:39.955Z,37
2019-01-11T11:07:30.036Z,36.9
2019-01-11T11:08:20.591Z,36.9
2019-01-11T11:09:10.416Z,36.9
2019-01-11T11:10:00.218Z,36.9
2019-01-11T11:10:49.379Z,36.9
2019-01-11T11:11:40.296Z,36.9
2019-01-11T11:12:30.596Z,36.9
2019-01-11T11:13:20.383Z,36.9
2019-01-11T11:14:10.498Z,36.9
2019-01-11T11:15:00.229Z,36.9
2019-01-11T11:15:50.823Z,36.9
2019-01-11T11:16:40.656Z,36.9
2019-01-11T11:17:29.884Z,36.9
2019-01-11T11:18:20.993Z,36.9
2019-01-11T11:19:10.468Z,36.9
2019-01-11T11:20:00.346Z,36.9
2019-01-11T11:20:50.888Z,36.9
2019-01-11T11:21:41.228Z,36.9
2019-01-11T11:22:30.453Z,36.9
2019-01-11T11:23:20.825Z,36.9
2019-01-11T11:24:10.003Z,36.8
2019-01-11T11:25:01.455Z,36.8
2019-01-11T11:25:50.948Z,36.6
2019-01-11T11:26:41.333Z,36.6
2019-01-11T11:27:30.756Z,36.5
2019-01-11T11:28:21.116Z,36.4
2019-01-11T11:29:12.938Z,36.4
2019-01-11T11:30:01.015Z,36.5
2019-01-11T11:30:57.175Z,36.4
2019-01-11T11:31:41.908Z,36.5
2019-01-11T11:32:31.733Z,36.5
2019-01-11T11:33:20.922Z,36.5
2019-01-11T11:34:11.772Z,36.5
2019-01-11T11:35:01.835Z,36.5
2019-01-11T11:35:51.887Z,36.5
2019-01-11T11:36:41.755Z,36.6
2019-01-11T11:37:32.000Z,36.6
2019-01-11T11:38:22.317Z,36.6
2019-01-11T11:39:12.390Z,36.6
2019-01-11T11:40:01.180Z,36.6
2019-01-11T11:40:51.695Z,36.6
2019-01-11T11:41:41.809Z,36.6
2019-01-11T11:42:31.312Z,36.6
2019-01-11T11:43:22.387Z,36.6
2019-01-11T11:44:12.172Z,36.6
2019-01-11T11:45:02.571Z,36.6
2019-01-11T11:45:52.324Z,36.6
2019-01-11T11:46:42.139Z,36.6
2019-01-11T11:47:32.269Z,36.6
2019-01-11T11:48:22.537Z,36.6
2019-01-11T11:49:12.506Z,36.6
2019-01-11T11:50:02.646Z,36.6
2019-01-11T11:50:52.916Z,36.6
2019-01-11T11:51:47.407Z,36.6
2019-01-11T11:52:33.326Z,36.5
2019-01-11T11:53:22.816Z,36.6
2019-01-11T11:54:12.582Z,36.5
2019-01-11T11:55:02.711Z,36.5
2019-01-11T11:55:52.486Z,36.5
2019-01-11T11:56:43.850Z,36.5
2019-01-11T11:57:34.151Z,36.5
2019-01-11T11:58:23.476Z,36.5
2019-01-11T11:59:13.229Z,36.5
2019-01-11T12:00:03.300Z,36.5
2019-01-11T12:00:53.364Z,36.5
2019-01-11T12:01:47.686Z,36.5
2019-01-11T12:02:34.031Z,36.5
2019-01-11T12:03:24.050Z,36.5
2019-01-11T12:04:13.235Z,36.4
2019-01-11T12:05:03.052Z,36.5
2019-01-11T12:05:53.948Z,36.5
2019-01-11T12:06:43.456Z,36.5
2019-01-11T12:07:33.753Z,36.4
2019-01-11T12:08:24.363Z,36.4
2019-01-11T12:09:14.143Z,36.4
2019-01-11T12:10:04.216Z,36.4
2019-01-11T12:10:54.577Z,36.4
2019-01-11T12:11:44.031Z,36.4
2019-01-11T12:12:35.829Z,36.4
2019-01-11T12:13:24.459Z,36.4
2019-01-11T12:14:14.475Z,36.4
2019-01-11T12:15:04.007Z,36.4
2019-01-11T12:15:54.018Z,36.4
2019-01-11T12:16:44.637Z,36.4
2019-01-11T12:17:36.096Z,36.4
2019-01-11T12:18:24.796Z,36.4
2019-01-11T12:19:14.572Z,36.4
2019-01-11T12:20:04.944Z,36.4
2019-01-11T12:20:54.105Z,36.4
2019-01-11T12:21:50.932Z,36.4
2019-01-11T12:22:35.044Z,36.4
2019-01-11T12:23:25.384Z,36.4
2019-01-11T12:24:15.436Z,36.4
2019-01-11T12:25:04.689Z,36.3
2019-01-11T12:25:54.688Z,36.3
2019-01-11T12:26:44.592Z,36.3
2019-01-11T12:27:34.621Z,36.3
2019-01-11T12:28:24.416Z,36.3
2019-01-11T12:29:15.309Z,36.3
2019-01-11T12:30:04.834Z,36.3
2019-01-11T12:30:54.847Z,36.3
2019-01-11T12:31:44.317Z,36.3
2019-01-11T12:32:35.189Z,36.3
2019-01-11T12:33:24.559Z,36.3
2019-01-11T12:34:14.860Z,36.3
2019-01-11T12:35:05.216Z,36.3
2019-01-11T12:35:55.296Z,36.3
2019-01-11T12:36:45.775Z,36.3
2019-01-11T12:37:34.539Z,36.3
2019-01-11T12:38:25.204Z,36.3
2019-01-11T12:39:15.975Z,36.3
2019-01-11T12:40:06.555Z,36.3
2019-01-11T12:40:55.989Z,36.3
2019-01-11T12:41:46.375Z,36.3
2019-01-11T12:42:35.535Z,36.3
2019-01-11T12:43:26.202Z,36.3
2019-01-11T12:44:16.784Z,36.3
2019-01-11T12:45:05.747Z,36.2
2019-01-11T12:45:56.872Z,36.2
2019-01-11T12:46:46.109Z,36.3
2019-01-11T12:47:37.005Z,36.2
2019-01-11T12:48:26.245Z,36.2
2019-01-11T12:49:16.892Z,36.2
2019-01-11T12:50:06.909Z,36.2
2019-01-11T12:50:56.384Z,36.2
2019-01-11T12:51:46.748Z,36.2
2019-01-11T12:52:37.058Z,36.1
2019-01-11T12:53:27.433Z,36.2
2019-01-11T12:54:17.415Z,36.1
2019-01-11T12:55:07.315Z,36.2
2019-01-11T12:55:57.345Z,36.1
2019-01-11T12:56:47.633Z,36.1
2019-01-11T12:57:37.464Z,36.1
2019-01-11T12:58:27.159Z,36.1
2019-01-11T12:59:16.893Z,36.1
2019-01-11T13:00:07.305Z,36.1
2019-01-11T13:00:57.604Z,36
2019-01-11T13:01:47.210Z,36
2019-01-11T13:02:37.311Z,36
2019-01-11T13:03:28.114Z,35.9
2019-01-11T13:04:17.627Z,36
2019-01-11T13:05:06.639Z,36
2019-01-11T13:05:58.512Z,35.9
2019-01-11T13:06:47.232Z,36
2019-01-11T13:07:37.279Z,36
2019-01-11T13:08:27.645Z,36
2019-01-11T13:09:17.929Z,36
2019-01-11T13:10:07.594Z,36
2019-01-11T13:10:57.524Z,36
2019-01-11T13:11:48.409Z,36
2019-01-11T13:12:38.294Z,36
2019-01-11T13:13:27.986Z,36
2019-01-11T13:14:17.761Z,36
2019-01-11T13:15:08.344Z,35.9
2019-01-11T13:15:58.401Z,35.9
2019-01-11T13:16:48.011Z,35.9
2019-01-11T13:17:38.103Z,35.9
2019-01-11T13:18:27.288Z,35.9
2019-01-11T13:19:17.648Z,35.9
2019-01-11T13:20:07.964Z,35.9
2019-01-11T13:20:57.738Z,35.9
2019-01-11T13:21:48.098Z,35.9
2019-01-11T13:22:39.123Z,35.9
2019-01-11T13:23:28.916Z,35.9
2019-01-11T13:24:18.988Z,35.9
2019-01-11T13:25:09.111Z,35.9
2019-01-11T13:25:59.388Z,35.9
2019-01-11T13:26:49.478Z,35.9
2019-01-11T13:27:39.186Z,35.9
2019-01-11T13:28:28.150Z,35.9
2019-01-11T13:29:18.881Z,35.9
2019-01-11T13:30:09.228Z,35.9
2019-01-11T13:30:59.168Z,35.9
2019-01-11T13:31:48.726Z,35.9
2019-01-11T13:32:39.110Z,35.9
2019-01-11T13:33:29.133Z,35.9
2019-01-11T13:34:18.930Z,35.9
2019-01-11T13:35:09.690Z,35.8
2019-01-11T13:35:59.217Z,35.9
2019-01-11T13:36:56.875Z,35.8
2019-01-11T13:37:40.375Z,35.8
2019-01-11T13:38:30.140Z,35.8
2019-01-11T13:39:20.503Z,35.8
2019-01-11T13:40:09.687Z,35.8
2019-01-11T13:41:00.317Z,35.8
2019-01-11T13:41:50.917Z,35.8
2019-01-11T13:42:40.965Z,35.8
2019-01-11T13:43:30.564Z,35.8
2019-01-11T13:44:19.770Z,35.8
2019-01-11T13:45:10.712Z,35.8
2019-01-11T13:46:00.354Z,35.8
2019-01-11T13:46:51.010Z,35.8
2019-01-11T13:47:40.022Z,35.8
2019-01-11T13:48:30.069Z,35.8
2019-01-11T13:49:20.129Z,35.8
2019-01-11T13:50:10.173Z,35.8
2019-01-11T13:51:02.462Z,35.8
2019-01-11T13:51:50.562Z,35.7
2019-01-11T13:52:40.909Z,35.8
2019-01-11T13:53:30.951Z,35.8
2019-01-11T13:54:20.506Z,35.7
2019-01-11T13:55:10.995Z,35.7
2019-01-11T13:56:00.574Z,35.7
2019-01-11T13:56:51.154Z,35.7
2019-01-11T13:57:41.701Z,35.7
2019-01-11T13:58:31.301Z,35.7
2019-01-11T13:59:20.801Z,35.7
2019-01-11T14:16:52.847Z,35.6
2019-01-11T14:17:43.448Z,35.6
2019-01-11T14:18:33.208Z,35.6
2019-01-11T14:19:24.133Z,35.6
2019-01-11T14:20:13.352Z,35.6
2019-01-11T14:21:03.677Z,35.5
2019-01-11T14:21:54.097Z,35.5
2019-01-11T14:22:44.366Z,35.5
2019-01-11T14:23:32.782Z,35.5
2019-01-11T14:24:23.404Z,35.5
2019-01-11T14:25:14.225Z,35.5
2019-01-11T14:26:04.065Z,35.5
2019-01-11T14:26:54.352Z,35.4
2019-01-11T14:27:43.925Z,35.4
2019-01-11T14:28:33.409Z,35.5
2019-01-11T14:29:24.035Z,35.5
2019-01-11T14:30:13.807Z,35.4
2019-01-11T14:31:03.329Z,35.4
2019-01-11T14:31:53.922Z,35.4
2019-01-11T14:32:44.247Z,35.4
2019-01-11T14:33:34.779Z,35.4
2019-01-11T14:34:24.629Z,35.4
2019-01-11T14:35:14.352Z,35.4
2019-01-11T14:36:03.812Z,35.4
2019-01-11T14:36:55.423Z,35.4
2019-01-11T14:37:44.514Z,35.4
2019-01-11T14:38:34.046Z,35.4
2019-01-11T14:39:24.617Z,35.4
2019-01-11T14:40:14.516Z,35.4
2019-01-11T14:41:04.712Z,35.3
2019-01-11T14:41:55.171Z,35.3
2019-01-11T14:42:44.436Z,35.3
2019-01-11T14:43:35.192Z,35.3
2019-01-11T14:44:24.433Z,35.3
2019-01-11T14:45:15.013Z,35.3
2019-01-11T14:46:05.634Z,35.3
2019-01-11T14:46:55.394Z,35.3
2019-01-11T14:47:45.806Z,35.3
2019-01-11T14:48:34.982Z,35.3
2019-01-11T14:49:26.116Z,35.3
2019-01-11T14:50:15.655Z,35.3
2019-01-11T14:51:05.708Z,35.3
2019-01-11T14:51:55.771Z,35.3
2019-01-11T14:52:45.843Z,35.3
2019-01-11T14:53:35.598Z,35.3
2019-01-11T14:54:25.665Z,35.3
2019-01-11T14:55:15.693Z,35.3
2019-01-11T14:56:06.020Z,35.2
2019-01-11T14:56:55.861Z,35.2
2019-01-11T14:57:45.946Z,35.3
2019-01-11T14:58:35.995Z,35.2
2019-01-11T14:59:26.240Z,35.2
2019-01-11T15:00:16.149Z,35.2
2019-01-11T15:01:06.818Z,35.2
2019-01-11T15:01:57.043Z,35.2
2019-01-11T15:02:46.503Z,35.2
2019-01-11T15:03:36.570Z,35.2
2019-01-11T15:04:26.335Z,35.2
2019-01-11T15:05:15.870Z,35.2
2019-01-11T15:06:06.176Z,35.2
2019-01-11T15:06:56.272Z,35.2
2019-01-11T15:07:46.727Z,35.2
2019-01-11T15:08:37.835Z,35.2
2019-01-11T15:09:26.662Z,35.2
2019-01-11T15:10:16.809Z,35.2
2019-01-11T15:11:07.047Z,35.1
2019-01-11T15:11:56.554Z,35.1
2019-01-11T15:12:46.659Z,35.2
2019-01-11T15:13:36.934Z,35.1
2019-01-11T15:14:26.986Z,35.1
2019-01-11T15:15:17.037Z,35.1
2019-01-11T15:16:06.799Z,35.1
2019-01-11T15:16:57.144Z,35.1
2019-01-11T15:17:48.084Z,35.1
2019-01-11T15:18:36.991Z,35.1
2019-01-11T15:19:27.306Z,35.1
2019-01-11T15:20:17.669Z,35.1
2019-01-11T15:21:07.439Z,35.1
2019-01-11T15:21:58.056Z,35.1
2019-01-11T15:22:47.282Z,35.1
2019-01-11T15:23:38.198Z,35.1
2019-01-11T15:24:27.928Z,35.1
2019-01-11T15:25:17.726Z,35.1
2019-01-11T15:26:07.784Z,35.1
2019-01-11T15:26:58.397Z,35.1
2019-01-11T15:27:47.898Z,35
2019-01-11T15:28:38.536Z,35
2019-01-11T15:29:28.578Z,35.1
2019-01-11T15:30:18.571Z,35
2019-01-11T15:31:08.695Z,35.1
2019-01-11T15:31:58.984Z,35
2019-01-11T15:32:47.747Z,35
2019-01-11T15:33:38.054Z,35
2019-01-11T15:34:28.916Z,35
2019-01-11T15:35:17.833Z,35
2019-01-11T15:36:09.263Z,35
2019-01-11T15:36:58.468Z,35
2019-01-11T15:37:49.145Z,35
2019-01-11T15:38:38.669Z,35
2019-01-11T15:39:28.423Z,34.9
2019-01-11T15:40:19.003Z,34.9
2019-01-11T15:41:09.640Z,34.9
2019-01-11T15:41:59.393Z,34.9
2019-01-11T15:42:49.448Z,34.9
2019-01-11T15:43:38.962Z,34.9
2019-01-11T15:44:28.465Z,34.9
2019-01-11T15:45:18.762Z,34.9
2019-01-11T15:46:15.505Z,34.9
2019-01-11T15:46:59.980Z,34.9
2019-01-11T15:47:50.072Z,34.9
2019-01-11T15:48:39.539Z,34.9
2019-01-11T15:49:30.220Z,34.9
2019-01-11T15:50:19.941Z,34.9
2019-01-11T15:51:09.717Z,34.9
2019-01-11T15:52:00.048Z,34.9
2019-01-11T15:52:50.125Z,34.9
2019-01-11T15:53:40.359Z,34.9
2019-01-11T15:54:29.704Z,34.9
2019-01-11T15:55:20.052Z,34.9
2019-01-11T15:56:09.534Z,34.8
2019-01-11T15:57:00.426Z,34.9
2019-01-11T15:57:51.028Z,34.8
2019-01-11T15:58:39.949Z,34.8
2019-01-11T15:59:30.316Z,34.8
2019-01-11T16:00:20.590Z,34.8
2019-01-11T16:01:10.135Z,34.8
2019-01-11T16:02:00.438Z,34.8
2019-01-11T16:02:49.935Z,34.8
2019-01-11T16:03:40.006Z,34.8
2019-01-11T16:04:30.613Z,34.8
2019-01-11T16:05:20.668Z,34.8
2019-01-11T16:06:10.723Z,34.8
2019-01-11T16:07:00.505Z,34.7